sensor_id;sensor_type;location;lat;lon;timestamp;P1;durP1;ratioP1;P2;durP2;ratioP2
71696;SDS011;59528;59.082;37.926;2022-12-07T00:00:39;3.53;;;1.30;;
71696;SDS011;59528;59.082;37.926;2022-12-07T00:03:04;2.93;;;1.57;;
71696;SDS011;59528;59.082;37.926;2022-12-07T00:05:30;2.80;;;1.60;;
71696;SDS011;59528;59.082;37.926;2022-12-07T00:07:55;2.80;;;1.30;;
71696;SDS011;59528;59.082;37.926;2022-12-07T00:10:21;2.47;;;1.33;;
71696;SDS011;59528;59.082;37.926;2022-12-07T00:12:46;2.43;;;1.00;;
71696;SDS011;59528;59.082;37.926;2022-12-07T00:15:12;2.17;;;1.07;;
71696;SDS011;59528;59.082;37.926;2022-12-07T00:17:38;2.17;;;1.20;;
71696;SDS011;59528;59.082;37.926;2022-12-07T00:20:04;2.00;;;1.40;;
71696;SDS011;59528;59.082;37.926;2022-12-07T00:22:30;1.83;;;0.97;;
71696;SDS011;59528;59.082;37.926;2022-12-07T00:24:56;3.23;;;1.20;;
71696;SDS011;59528;59.082;37.926;2022-12-07T00:27:21;5.13;;;1.43;;
71696;SDS011;59528;59.082;37.926;2022-12-07T00:29:47;3.20;;;1.30;;
71696;SDS011;59528;59.082;37.926;2022-12-07T00:32:12;1.63;;;1.10;;
71696;SDS011;59528;59.082;37.926;2022-12-07T00:34:38;4.17;;;1.40;;
71696;SDS011;59528;59.082;37.926;2022-12-07T00:37:04;1.97;;;1.20;;
71696;SDS011;59528;59.082;37.926;2022-12-07T00:39:30;3.70;;;1.40;;
71696;SDS011;59528;59.082;37.926;2022-12-07T00:41:55;3.03;;;1.47;;
71696;SDS011;59528;59.082;37.926;2022-12-07T00:44:21;2.67;;;1.40;;
71696;SDS011;59528;59.082;37.926;2022-12-07T00:46:46;3.97;;;1.20;;
71696;SDS011;59528;59.082;37.926;2022-12-07T00:49:12;3.00;;;1.37;;
71696;SDS011;59528;59.082;37.926;2022-12-07T00:51:37;2.33;;;1.33;;
71696;SDS011;59528;59.082;37.926;2022-12-07T00:54:03;2.67;;;1.40;;
71696;SDS011;59528;59.082;37.926;2022-12-07T00:56:28;1.63;;;1.10;;
71696;SDS011;59528;59.082;37.926;2022-12-07T00:58:55;2.00;;;1.23;;
71696;SDS011;59528;59.082;37.926;2022-12-07T01:01:21;1.40;;;1.20;;
71696;SDS011;59528;59.082;37.926;2022-12-07T01:03:47;1.63;;;1.07;;
71696;SDS011;59528;59.082;37.926;2022-12-07T01:06:16;2.87;;;1.77;;
71696;SDS011;59528;59.082;37.926;2022-12-07T01:08:42;4.03;;;1.10;;
71696;SDS011;59528;59.082;37.926;2022-12-07T01:11:09;3.63;;;1.13;;
71696;SDS011;59528;59.082;37.926;2022-12-07T01:13:35;2.97;;;1.40;;
71696;SDS011;59528;59.082;37.926;2022-12-07T01:16:01;5.67;;;1.40;;
71696;SDS011;59528;59.082;37.926;2022-12-07T01:18:28;2.00;;;1.00;;
71696;SDS011;59528;59.082;37.926;2022-12-07T01:20:59;2.50;;;1.90;;
71696;SDS011;59528;59.082;37.926;2022-12-07T01:23:25;2.47;;;1.33;;
71696;SDS011;59528;59.082;37.926;2022-12-07T01:25:54;3.67;;;1.40;;
71696;SDS011;59528;59.082;37.926;2022-12-07T01:28:20;1.87;;;1.13;;
71696;SDS011;59528;59.082;37.926;2022-12-07T01:30:54;2.73;;;1.43;;
71696;SDS011;59528;59.082;37.926;2022-12-07T01:33:19;2.00;;;1.20;;
71696;SDS011;59528;59.082;37.926;2022-12-07T01:35:45;2.10;;;1.20;;
71696;SDS011;59528;59.082;37.926;2022-12-07T01:38:10;2.53;;;1.20;;
71696;SDS011;59528;59.082;37.926;2022-12-07T01:40:36;2.43;;;1.17;;
71696;SDS011;59528;59.082;37.926;2022-12-07T01:43:01;4.37;;;2.80;;
71696;SDS011;59528;59.082;37.926;2022-12-07T01:47:55;2.03;;;1.43;;
71696;SDS011;59528;59.082;37.926;2022-12-07T01:50:22;1.90;;;1.10;;
71696;SDS011;59528;59.082;37.926;2022-12-07T01:52:49;2.23;;;1.30;;
71696;SDS011;59528;59.082;37.926;2022-12-07T01:55:15;2.10;;;1.20;;
71696;SDS011;59528;59.082;37.926;2022-12-07T01:57:45;1.97;;;1.17;;
71696;SDS011;59528;59.082;37.926;2022-12-07T02:00:16;2.33;;;1.30;;
71696;SDS011;59528;59.082;37.926;2022-12-07T02:02:43;6.00;;;1.57;;
71696;SDS011;59528;59.082;37.926;2022-12-07T02:05:11;2.37;;;1.47;;
71696;SDS011;59528;59.082;37.926;2022-12-07T02:07:38;3.37;;;1.07;;
71696;SDS011;59528;59.082;37.926;2022-12-07T02:10:20;1.97;;;1.10;;
71696;SDS011;59528;59.082;37.926;2022-12-07T02:12:47;2.00;;;1.07;;
71696;SDS011;59528;59.082;37.926;2022-12-07T02:15:14;2.97;;;1.20;;
71696;SDS011;59528;59.082;37.926;2022-12-07T02:28:18;1.80;;;1.20;;
71696;SDS011;59528;59.082;37.926;2022-12-07T02:30:46;2.03;;;1.27;;
71696;SDS011;59528;59.082;37.926;2022-12-07T02:33:23;2.63;;;1.13;;
71696;SDS011;59528;59.082;37.926;2022-12-07T02:38:45;3.33;;;1.30;;
71696;SDS011;59528;59.082;37.926;2022-12-07T02:41:23;2.40;;;1.10;;
71696;SDS011;59528;59.082;37.926;2022-12-07T02:43:55;4.13;;;1.57;;
71696;SDS011;59528;59.082;37.926;2022-12-07T02:46:28;2.93;;;1.23;;
71696;SDS011;59528;59.082;37.926;2022-12-07T02:48:55;3.60;;;1.17;;
71696;SDS011;59528;59.082;37.926;2022-12-07T02:51:21;2.23;;;1.03;;
71696;SDS011;59528;59.082;37.926;2022-12-07T02:53:47;2.63;;;1.40;;
71696;SDS011;59528;59.082;37.926;2022-12-07T03:06:50;2.50;;;1.33;;
71696;SDS011;59528;59.082;37.926;2022-12-07T03:09:31;2.20;;;1.10;;
71696;SDS011;59528;59.082;37.926;2022-12-07T03:12:06;4.87;;;1.87;;
71696;SDS011;59528;59.082;37.926;2022-12-07T03:14:35;2.07;;;1.03;;
71696;SDS011;59528;59.082;37.926;2022-12-07T03:17:10;3.43;;;1.40;;
71696;SDS011;59528;59.082;37.926;2022-12-07T03:19:37;3.10;;;1.30;;
71696;SDS011;59528;59.082;37.926;2022-12-07T03:22:04;3.00;;;1.40;;
71696;SDS011;59528;59.082;37.926;2022-12-07T03:24:33;2.23;;;1.20;;
71696;SDS011;59528;59.082;37.926;2022-12-07T03:27:09;2.57;;;1.23;;
71696;SDS011;59528;59.082;37.926;2022-12-07T03:29:37;2.33;;;1.27;;
71696;SDS011;59528;59.082;37.926;2022-12-07T03:32:11;3.17;;;1.30;;
71696;SDS011;59528;59.082;37.926;2022-12-07T03:34:40;3.30;;;1.40;;
71696;SDS011;59528;59.082;37.926;2022-12-07T03:37:14;2.37;;;1.33;;
71696;SDS011;59528;59.082;37.926;2022-12-07T03:42:43;2.27;;;1.23;;
71696;SDS011;59528;59.082;37.926;2022-12-07T03:45:09;2.97;;;1.27;;
71696;SDS011;59528;59.082;37.926;2022-12-07T03:47:42;1.90;;;1.20;;
71696;SDS011;59528;59.082;37.926;2022-12-07T03:52:52;2.23;;;1.23;;
71696;SDS011;59528;59.082;37.926;2022-12-07T03:57:44;3.60;;;1.50;;
71696;SDS011;59528;59.082;37.926;2022-12-07T04:00:12;2.87;;;1.30;;
71696;SDS011;59528;59.082;37.926;2022-12-07T04:02:39;2.17;;;1.60;;
71696;SDS011;59528;59.082;37.926;2022-12-07T04:05:05;2.13;;;1.20;;
71696;SDS011;59528;59.082;37.926;2022-12-07T04:07:31;2.47;;;1.30;;
71696;SDS011;59528;59.082;37.926;2022-12-07T04:09:57;3.27;;;1.30;;
71696;SDS011;59528;59.082;37.926;2022-12-07T04:12:22;3.67;;;1.37;;
71696;SDS011;59528;59.082;37.926;2022-12-07T04:14:48;1.97;;;1.47;;
71696;SDS011;59528;59.082;37.926;2022-12-07T04:17:14;4.17;;;1.20;;
71696;SDS011;59528;59.082;37.926;2022-12-07T04:19:39;2.33;;;1.23;;
71696;SDS011;59528;59.082;37.926;2022-12-07T04:22:05;3.43;;;1.57;;
71696;SDS011;59528;59.082;37.926;2022-12-07T04:24:31;4.10;;;1.67;;
71696;SDS011;59528;59.082;37.926;2022-12-07T04:26:57;2.47;;;1.40;;
71696;SDS011;59528;59.082;37.926;2022-12-07T04:29:22;2.87;;;1.47;;
71696;SDS011;59528;59.082;37.926;2022-12-07T04:31:48;2.97;;;1.50;;
71696;SDS011;59528;59.082;37.926;2022-12-07T04:34:15;2.37;;;1.20;;
71696;SDS011;59528;59.082;37.926;2022-12-07T04:36:41;2.80;;;1.37;;
71696;SDS011;59528;59.082;37.926;2022-12-07T04:39:07;2.23;;;1.30;;
71696;SDS011;59528;59.082;37.926;2022-12-07T04:41:32;3.53;;;1.20;;
71696;SDS011;59528;59.082;37.926;2022-12-07T04:43:59;4.50;;;1.77;;
71696;SDS011;59528;59.082;37.926;2022-12-07T04:46:25;2.97;;;1.63;;
71696;SDS011;59528;59.082;37.926;2022-12-07T04:48:52;2.80;;;1.50;;
71696;SDS011;59528;59.082;37.926;2022-12-07T04:51:20;4.33;;;1.90;;
71696;SDS011;59528;59.082;37.926;2022-12-07T04:53:45;3.33;;;1.70;;
71696;SDS011;59528;59.082;37.926;2022-12-07T04:56:11;3.27;;;1.87;;
71696;SDS011;59528;59.082;37.926;2022-12-07T04:58:37;4.87;;;1.57;;
71696;SDS011;59528;59.082;37.926;2022-12-07T05:01:02;2.83;;;1.63;;
71696;SDS011;59528;59.082;37.926;2022-12-07T05:03:28;3.43;;;1.73;;
71696;SDS011;59528;59.082;37.926;2022-12-07T05:05:53;2.77;;;1.80;;
71696;SDS011;59528;59.082;37.926;2022-12-07T05:08:19;2.37;;;1.33;;
71696;SDS011;59528;59.082;37.926;2022-12-07T05:10:44;3.47;;;1.30;;
71696;SDS011;59528;59.082;37.926;2022-12-07T05:13:10;3.13;;;1.57;;
71696;SDS011;59528;59.082;37.926;2022-12-07T05:15:36;5.13;;;1.80;;
71696;SDS011;59528;59.082;37.926;2022-12-07T05:18:01;5.07;;;1.40;;
71696;SDS011;59528;59.082;37.926;2022-12-07T05:20:28;4.50;;;1.77;;
71696;SDS011;59528;59.082;37.926;2022-12-07T05:22:54;2.90;;;1.40;;
71696;SDS011;59528;59.082;37.926;2022-12-07T05:25:19;2.47;;;1.43;;
71696;SDS011;59528;59.082;37.926;2022-12-07T05:27:45;2.43;;;1.60;;
71696;SDS011;59528;59.082;37.926;2022-12-07T05:30:11;2.63;;;1.50;;
71696;SDS011;59528;59.082;37.926;2022-12-07T05:32:36;3.57;;;1.70;;
71696;SDS011;59528;59.082;37.926;2022-12-07T05:35:02;2.17;;;1.27;;
71696;SDS011;59528;59.082;37.926;2022-12-07T05:37:28;2.07;;;1.40;;
71696;SDS011;59528;59.082;37.926;2022-12-07T05:39:53;2.63;;;1.30;;
71696;SDS011;59528;59.082;37.926;2022-12-07T05:42:19;3.27;;;1.23;;
71696;SDS011;59528;59.082;37.926;2022-12-07T05:44:45;2.97;;;1.20;;
71696;SDS011;59528;59.082;37.926;2022-12-07T05:47:12;3.27;;;1.23;;
71696;SDS011;59528;59.082;37.926;2022-12-07T05:49:37;3.83;;;1.50;;
71696;SDS011;59528;59.082;37.926;2022-12-07T05:52:03;4.43;;;1.60;;
71696;SDS011;59528;59.082;37.926;2022-12-07T05:54:29;3.13;;;1.27;;
71696;SDS011;59528;59.082;37.926;2022-12-07T05:56:55;4.37;;;1.43;;
71696;SDS011;59528;59.082;37.926;2022-12-07T05:59:21;3.63;;;1.53;;
71696;SDS011;59528;59.082;37.926;2022-12-07T06:01:50;2.20;;;1.30;;
71696;SDS011;59528;59.082;37.926;2022-12-07T06:04:16;3.23;;;1.37;;
71696;SDS011;59528;59.082;37.926;2022-12-07T06:06:42;2.67;;;1.40;;
71696;SDS011;59528;59.082;37.926;2022-12-07T06:09:08;5.67;;;1.33;;
71696;SDS011;59528;59.082;37.926;2022-12-07T06:11:33;2.73;;;1.50;;
71696;SDS011;59528;59.082;37.926;2022-12-07T06:14:17;3.10;;;1.30;;
71696;SDS011;59528;59.082;37.926;2022-12-07T06:16:43;2.77;;;1.37;;
71696;SDS011;59528;59.082;37.926;2022-12-07T06:19:09;2.53;;;1.30;;
71696;SDS011;59528;59.082;37.926;2022-12-07T06:21:35;2.53;;;1.67;;
71696;SDS011;59528;59.082;37.926;2022-12-07T06:24:00;2.30;;;1.17;;
71696;SDS011;59528;59.082;37.926;2022-12-07T06:26:26;2.93;;;1.40;;
71696;SDS011;59528;59.082;37.926;2022-12-07T06:28:52;3.77;;;1.63;;
71696;SDS011;59528;59.082;37.926;2022-12-07T06:31:17;1.57;;;1.03;;
71696;SDS011;59528;59.082;37.926;2022-12-07T06:33:43;2.73;;;1.40;;
71696;SDS011;59528;59.082;37.926;2022-12-07T06:36:09;4.37;;;1.47;;
71696;SDS011;59528;59.082;37.926;2022-12-07T06:38:34;3.67;;;1.53;;
71696;SDS011;59528;59.082;37.926;2022-12-07T06:41:00;3.20;;;1.60;;
71696;SDS011;59528;59.082;37.926;2022-12-07T06:43:26;4.10;;;1.73;;
71696;SDS011;59528;59.082;37.926;2022-12-07T06:45:52;4.10;;;1.40;;
71696;SDS011;59528;59.082;37.926;2022-12-07T06:48:18;5.17;;;1.80;;
71696;SDS011;59528;59.082;37.926;2022-12-07T06:50:44;4.17;;;1.60;;
71696;SDS011;59528;59.082;37.926;2022-12-07T06:53:10;2.57;;;1.40;;
71696;SDS011;59528;59.082;37.926;2022-12-07T06:55:36;3.30;;;1.50;;
71696;SDS011;59528;59.082;37.926;2022-12-07T06:58:01;2.90;;;1.60;;
71696;SDS011;59528;59.082;37.926;2022-12-07T07:00:28;3.30;;;2.10;;
71696;SDS011;59528;59.082;37.926;2022-12-07T07:02:53;3.43;;;2.00;;
71696;SDS011;59528;59.082;37.926;2022-12-07T07:05:20;2.33;;;1.30;;
71696;SDS011;59528;59.082;37.926;2022-12-07T07:07:49;2.80;;;1.80;;
71696;SDS011;59528;59.082;37.926;2022-12-07T07:10:14;4.00;;;1.67;;
71696;SDS011;59528;59.082;37.926;2022-12-07T07:12:40;3.70;;;1.70;;
71696;SDS011;59528;59.082;37.926;2022-12-07T07:15:06;2.97;;;1.20;;
71696;SDS011;59528;59.082;37.926;2022-12-07T07:17:32;4.53;;;1.83;;
71696;SDS011;59528;59.082;37.926;2022-12-07T07:19:57;2.50;;;1.40;;
71696;SDS011;59528;59.082;37.926;2022-12-07T07:22:26;2.67;;;1.50;;
71696;SDS011;59528;59.082;37.926;2022-12-07T07:24:52;3.13;;;1.77;;
71696;SDS011;59528;59.082;37.926;2022-12-07T07:27:17;3.37;;;1.37;;
71696;SDS011;59528;59.082;37.926;2022-12-07T07:29:43;4.03;;;1.50;;
71696;SDS011;59528;59.082;37.926;2022-12-07T07:32:09;3.63;;;1.60;;
71696;SDS011;59528;59.082;37.926;2022-12-07T07:34:34;3.20;;;1.47;;
71696;SDS011;59528;59.082;37.926;2022-12-07T07:37:00;2.60;;;1.30;;
71696;SDS011;59528;59.082;37.926;2022-12-07T07:39:26;3.43;;;1.83;;
71696;SDS011;59528;59.082;37.926;2022-12-07T07:41:51;4.40;;;1.90;;
71696;SDS011;59528;59.082;37.926;2022-12-07T07:44:24;3.00;;;1.80;;
71696;SDS011;59528;59.082;37.926;2022-12-07T07:46:49;5.07;;;1.60;;
71696;SDS011;59528;59.082;37.926;2022-12-07T07:49:15;3.53;;;1.60;;
71696;SDS011;59528;59.082;37.926;2022-12-07T07:51:41;3.13;;;1.50;;
71696;SDS011;59528;59.082;37.926;2022-12-07T07:54:06;5.20;;;1.90;;
71696;SDS011;59528;59.082;37.926;2022-12-07T07:56:32;4.33;;;2.20;;
71696;SDS011;59528;59.082;37.926;2022-12-07T07:58:57;3.70;;;1.70;;
71696;SDS011;59528;59.082;37.926;2022-12-07T08:01:23;5.50;;;1.77;;
71696;SDS011;59528;59.082;37.926;2022-12-07T08:03:49;2.97;;;1.80;;
71696;SDS011;59528;59.082;37.926;2022-12-07T08:06:15;3.67;;;1.53;;
71696;SDS011;59528;59.082;37.926;2022-12-07T08:08:40;4.23;;;1.97;;
71696;SDS011;59528;59.082;37.926;2022-12-07T08:11:08;4.60;;;2.07;;
71696;SDS011;59528;59.082;37.926;2022-12-07T08:13:34;3.87;;;1.43;;
71696;SDS011;59528;59.082;37.926;2022-12-07T08:16:04;3.00;;;1.70;;
71696;SDS011;59528;59.082;37.926;2022-12-07T08:18:29;3.97;;;1.90;;
71696;SDS011;59528;59.082;37.926;2022-12-07T08:20:58;4.43;;;2.07;;
71696;SDS011;59528;59.082;37.926;2022-12-07T08:23:24;4.20;;;1.60;;
71696;SDS011;59528;59.082;37.926;2022-12-07T08:25:50;4.63;;;1.60;;
71696;SDS011;59528;59.082;37.926;2022-12-07T08:28:15;4.27;;;1.90;;
71696;SDS011;59528;59.082;37.926;2022-12-07T08:30:41;6.73;;;2.07;;
71696;SDS011;59528;59.082;37.926;2022-12-07T08:33:07;6.80;;;2.10;;
71696;SDS011;59528;59.082;37.926;2022-12-07T08:35:33;4.00;;;1.93;;
71696;SDS011;59528;59.082;37.926;2022-12-07T08:37:59;2.73;;;1.63;;
71696;SDS011;59528;59.082;37.926;2022-12-07T08:40:25;4.10;;;1.90;;
71696;SDS011;59528;59.082;37.926;2022-12-07T08:42:50;5.30;;;1.83;;
71696;SDS011;59528;59.082;37.926;2022-12-07T08:45:17;6.03;;;2.07;;
71696;SDS011;59528;59.082;37.926;2022-12-07T08:47:45;4.47;;;1.87;;
71696;SDS011;59528;59.082;37.926;2022-12-07T08:50:12;3.00;;;1.50;;
71696;SDS011;59528;59.082;37.926;2022-12-07T08:52:38;5.37;;;2.00;;
71696;SDS011;59528;59.082;37.926;2022-12-07T08:55:05;6.53;;;2.33;;
71696;SDS011;59528;59.082;37.926;2022-12-07T08:57:31;5.30;;;1.93;;
71696;SDS011;59528;59.082;37.926;2022-12-07T08:59:58;6.10;;;1.70;;
71696;SDS011;59528;59.082;37.926;2022-12-07T09:02:24;5.07;;;2.27;;
71696;SDS011;59528;59.082;37.926;2022-12-07T09:04:49;4.30;;;1.97;;
71696;SDS011;59528;59.082;37.926;2022-12-07T09:07:15;4.60;;;2.00;;
71696;SDS011;59528;59.082;37.926;2022-12-07T09:09:41;4.67;;;2.37;;
71696;SDS011;59528;59.082;37.926;2022-12-07T09:12:07;4.17;;;2.37;;
71696;SDS011;59528;59.082;37.926;2022-12-07T09:14:32;5.30;;;2.53;;
71696;SDS011;59528;59.082;37.926;2022-12-07T09:17:08;4.97;;;2.33;;
71696;SDS011;59528;59.082;37.926;2022-12-07T09:19:34;6.47;;;2.60;;
71696;SDS011;59528;59.082;37.926;2022-12-07T09:22:00;4.63;;;2.20;;
71696;SDS011;59528;59.082;37.926;2022-12-07T09:24:26;5.13;;;2.13;;
71696;SDS011;59528;59.082;37.926;2022-12-07T09:26:51;3.67;;;2.00;;
71696;SDS011;59528;59.082;37.926;2022-12-07T09:29:17;5.30;;;1.80;;
71696;SDS011;59528;59.082;37.926;2022-12-07T09:31:43;3.67;;;2.30;;
71696;SDS011;59528;59.082;37.926;2022-12-07T09:34:08;4.87;;;1.83;;
71696;SDS011;59528;59.082;37.926;2022-12-07T09:36:34;4.77;;;2.00;;
71696;SDS011;59528;59.082;37.926;2022-12-07T09:39:00;5.00;;;2.13;;
71696;SDS011;59528;59.082;37.926;2022-12-07T09:41:26;5.17;;;2.60;;
71696;SDS011;59528;59.082;37.926;2022-12-07T09:43:53;6.33;;;2.30;;
71696;SDS011;59528;59.082;37.926;2022-12-07T09:46:23;3.83;;;2.10;;
71696;SDS011;59528;59.082;37.926;2022-12-07T09:48:49;3.77;;;1.90;;
71696;SDS011;59528;59.082;37.926;2022-12-07T09:51:22;3.90;;;1.97;;
71696;SDS011;59528;59.082;37.926;2022-12-07T09:53:49;4.60;;;2.17;;
71696;SDS011;59528;59.082;37.926;2022-12-07T09:56:15;5.77;;;2.30;;
71696;SDS011;59528;59.082;37.926;2022-12-07T09:58:41;4.33;;;2.30;;
71696;SDS011;59528;59.082;37.926;2022-12-07T10:03:37;5.30;;;2.70;;
71696;SDS011;59528;59.082;37.926;2022-12-07T10:06:04;4.53;;;2.03;;
71696;SDS011;59528;59.082;37.926;2022-12-07T10:08:30;4.40;;;2.03;;
71696;SDS011;59528;59.082;37.926;2022-12-07T10:10:56;4.07;;;2.17;;
71696;SDS011;59528;59.082;37.926;2022-12-07T10:13:33;4.57;;;2.30;;
71696;SDS011;59528;59.082;37.926;2022-12-07T10:15:58;4.70;;;2.20;;
71696;SDS011;59528;59.082;37.926;2022-12-07T10:18:32;3.20;;;2.00;;
71696;SDS011;59528;59.082;37.926;2022-12-07T10:23:36;4.87;;;2.77;;
71696;SDS011;59528;59.082;37.926;2022-12-07T10:26:21;6.77;;;2.30;;
71696;SDS011;59528;59.082;37.926;2022-12-07T10:28:51;5.33;;;2.20;;
71696;SDS011;59528;59.082;37.926;2022-12-07T10:31:21;4.50;;;2.20;;
71696;SDS011;59528;59.082;37.926;2022-12-07T10:33:54;4.33;;;2.23;;
71696;SDS011;59528;59.082;37.926;2022-12-07T10:36:24;4.77;;;2.20;;
71696;SDS011;59528;59.082;37.926;2022-12-07T10:41:25;5.53;;;2.40;;
71696;SDS011;59528;59.082;37.926;2022-12-07T10:43:52;4.03;;;2.50;;
71696;SDS011;59528;59.082;37.926;2022-12-07T10:46:25;4.20;;;2.17;;
71696;SDS011;59528;59.082;37.926;2022-12-07T10:51:35;5.13;;;2.43;;
71696;SDS011;59528;59.082;37.926;2022-12-07T10:56:36;5.57;;;2.80;;
71696;SDS011;59528;59.082;37.926;2022-12-07T11:06:54;4.07;;;2.07;;
71696;SDS011;59528;59.082;37.926;2022-12-07T11:11:59;4.37;;;2.33;;
71696;SDS011;59528;59.082;37.926;2022-12-07T11:17:17;4.90;;;2.13;;
71696;SDS011;59528;59.082;37.926;2022-12-07T11:28:06;4.53;;;2.60;;
71696;SDS011;59528;59.082;37.926;2022-12-07T11:33:21;3.97;;;2.37;;
71696;SDS011;59528;59.082;37.926;2022-12-07T11:38:16;4.17;;;2.33;;
71696;SDS011;59528;59.082;37.926;2022-12-07T11:40:52;4.47;;;2.67;;
71696;SDS011;59528;59.082;37.926;2022-12-07T11:45:50;5.47;;;2.90;;
71696;SDS011;59528;59.082;37.926;2022-12-07T11:48:20;4.00;;;2.47;;
71696;SDS011;59528;59.082;37.926;2022-12-07T11:50:50;4.47;;;2.60;;
71696;SDS011;59528;59.082;37.926;2022-12-07T11:56:19;4.40;;;2.50;;
71696;SDS011;59528;59.082;37.926;2022-12-07T12:04:46;4.93;;;2.63;;
71696;SDS011;59528;59.082;37.926;2022-12-07T12:06:38;5.93;;;3.13;;
71696;SDS011;59528;59.082;37.926;2022-12-07T12:09:12;4.20;;;2.90;;
71696;SDS011;59528;59.082;37.926;2022-12-07T12:19:36;5.17;;;3.00;;
71696;SDS011;59528;59.082;37.926;2022-12-07T12:22:16;7.80;;;2.53;;
71696;SDS011;59528;59.082;37.926;2022-12-07T12:24:43;5.10;;;2.73;;
71696;SDS011;59528;59.082;37.926;2022-12-07T12:27:15;6.47;;;3.40;;
71696;SDS011;59528;59.082;37.926;2022-12-07T12:29:41;6.03;;;3.20;;
71696;SDS011;59528;59.082;37.926;2022-12-07T12:34:38;4.87;;;3.00;;
71696;SDS011;59528;59.082;37.926;2022-12-07T12:37:13;6.63;;;3.07;;
71696;SDS011;59528;59.082;37.926;2022-12-07T12:42:53;7.40;;;3.20;;
71696;SDS011;59528;59.082;37.926;2022-12-07T12:45:29;5.53;;;2.93;;
71696;SDS011;59528;59.082;37.926;2022-12-07T12:52:49;5.63;;;3.00;;
71696;SDS011;59528;59.082;37.926;2022-12-07T12:55:17;4.70;;;3.20;;
71696;SDS011;59528;59.082;37.926;2022-12-07T12:57:46;6.23;;;3.20;;
71696;SDS011;59528;59.082;37.926;2022-12-07T13:00:15;5.40;;;3.00;;
71696;SDS011;59528;59.082;37.926;2022-12-07T13:12:54;6.23;;;3.17;;
71696;SDS011;59528;59.082;37.926;2022-12-07T13:20:44;5.77;;;2.63;;
71696;SDS011;59528;59.082;37.926;2022-12-07T13:23:10;4.47;;;2.77;;
71696;SDS011;59528;59.082;37.926;2022-12-07T13:25:45;6.17;;;2.53;;
71696;SDS011;59528;59.082;37.926;2022-12-07T13:28:14;5.17;;;2.60;;
71696;SDS011;59528;59.082;37.926;2022-12-07T13:30:57;4.90;;;2.70;;
71696;SDS011;59528;59.082;37.926;2022-12-07T13:33:28;4.57;;;2.40;;
71696;SDS011;59528;59.082;37.926;2022-12-07T13:35:54;5.03;;;3.10;;
71696;SDS011;59528;59.082;37.926;2022-12-07T13:38:27;5.77;;;3.00;;
71696;SDS011;59528;59.082;37.926;2022-12-07T13:41:00;5.37;;;2.70;;
71696;SDS011;59528;59.082;37.926;2022-12-07T13:43:26;4.90;;;2.67;;
71696;SDS011;59528;59.082;37.926;2022-12-07T13:45:58;5.13;;;2.40;;
71696;SDS011;59528;59.082;37.926;2022-12-07T13:48:35;4.03;;;2.47;;
71696;SDS011;59528;59.082;37.926;2022-12-07T13:51:03;4.70;;;2.40;;
71696;SDS011;59528;59.082;37.926;2022-12-07T13:53:28;4.83;;;2.60;;
71696;SDS011;59528;59.082;37.926;2022-12-07T13:55:59;6.77;;;2.80;;
71696;SDS011;59528;59.082;37.926;2022-12-07T13:58:25;5.40;;;2.80;;
71696;SDS011;59528;59.082;37.926;2022-12-07T14:00:51;6.37;;;2.80;;
71696;SDS011;59528;59.082;37.926;2022-12-07T14:05:43;6.33;;;2.90;;
71696;SDS011;59528;59.082;37.926;2022-12-07T14:10:38;5.00;;;2.40;;
71696;SDS011;59528;59.082;37.926;2022-12-07T14:13:22;4.47;;;2.77;;
71696;SDS011;59528;59.082;37.926;2022-12-07T14:15:50;6.37;;;3.10;;
71696;SDS011;59528;59.082;37.926;2022-12-07T14:21:03;7.47;;;3.17;;
71696;SDS011;59528;59.082;37.926;2022-12-07T14:23:29;5.63;;;2.60;;
71696;SDS011;59528;59.082;37.926;2022-12-07T14:26:03;7.13;;;2.70;;
71696;SDS011;59528;59.082;37.926;2022-12-07T14:28:33;5.13;;;2.70;;
71696;SDS011;59528;59.082;37.926;2022-12-07T14:30:59;6.10;;;2.70;;
71696;SDS011;59528;59.082;37.926;2022-12-07T14:33:25;4.70;;;2.57;;
71696;SDS011;59528;59.082;37.926;2022-12-07T14:35:52;5.17;;;2.57;;
71696;SDS011;59528;59.082;37.926;2022-12-07T14:38:30;4.10;;;2.47;;
71696;SDS011;59528;59.082;37.926;2022-12-07T14:40:59;5.67;;;3.20;;
71696;SDS011;59528;59.082;37.926;2022-12-07T14:43:45;3.43;;;2.23;;
71696;SDS011;59528;59.082;37.926;2022-12-07T14:46:11;4.57;;;2.73;;
71696;SDS011;59528;59.082;37.926;2022-12-07T14:48:36;9.60;;;3.20;;
71696;SDS011;59528;59.082;37.926;2022-12-07T14:51:02;6.37;;;3.00;;
71696;SDS011;59528;59.082;37.926;2022-12-07T14:53:29;5.83;;;2.97;;
71696;SDS011;59528;59.082;37.926;2022-12-07T14:55:55;6.33;;;3.23;;
71696;SDS011;59528;59.082;37.926;2022-12-07T14:58:21;5.97;;;2.80;;
71696;SDS011;59528;59.082;37.926;2022-12-07T15:00:47;10.23;;;2.77;;
71696;SDS011;59528;59.082;37.926;2022-12-07T15:03:13;6.80;;;2.97;;
71696;SDS011;59528;59.082;37.926;2022-12-07T15:05:39;7.20;;;2.40;;
71696;SDS011;59528;59.082;37.926;2022-12-07T15:08:05;6.37;;;2.63;;
71696;SDS011;59528;59.082;37.926;2022-12-07T15:10:32;6.13;;;2.70;;
71696;SDS011;59528;59.082;37.926;2022-12-07T15:12:58;6.27;;;3.07;;
71696;SDS011;59528;59.082;37.926;2022-12-07T15:15:43;5.27;;;2.73;;
71696;SDS011;59528;59.082;37.926;2022-12-07T15:18:08;5.07;;;2.27;;
71696;SDS011;59528;59.082;37.926;2022-12-07T15:20:34;6.43;;;2.63;;
71696;SDS011;59528;59.082;37.926;2022-12-07T15:23:00;8.73;;;3.10;;
71696;SDS011;59528;59.082;37.926;2022-12-07T15:25:25;5.10;;;2.83;;
71696;SDS011;59528;59.082;37.926;2022-12-07T15:27:51;5.90;;;2.63;;
71696;SDS011;59528;59.082;37.926;2022-12-07T15:30:16;6.17;;;2.97;;
71696;SDS011;59528;59.082;37.926;2022-12-07T15:32:42;4.90;;;2.70;;
71696;SDS011;59528;59.082;37.926;2022-12-07T15:35:07;5.10;;;2.47;;
71696;SDS011;59528;59.082;37.926;2022-12-07T15:37:33;8.60;;;2.97;;
71696;SDS011;59528;59.082;37.926;2022-12-07T15:39:59;7.33;;;2.57;;
71696;SDS011;59528;59.082;37.926;2022-12-07T15:42:27;4.80;;;2.87;;
71696;SDS011;59528;59.082;37.926;2022-12-07T15:44:53;5.87;;;2.80;;
71696;SDS011;59528;59.082;37.926;2022-12-07T15:47:35;4.87;;;2.47;;
71696;SDS011;59528;59.082;37.926;2022-12-07T15:50:05;7.87;;;3.00;;
71696;SDS011;59528;59.082;37.926;2022-12-07T15:52:34;4.07;;;2.50;;
71696;SDS011;59528;59.082;37.926;2022-12-07T15:55:00;5.10;;;2.63;;
71696;SDS011;59528;59.082;37.926;2022-12-07T15:57:27;6.13;;;3.03;;
71696;SDS011;59528;59.082;37.926;2022-12-07T15:59:56;8.73;;;3.00;;
71696;SDS011;59528;59.082;37.926;2022-12-07T16:02:21;5.27;;;2.73;;
71696;SDS011;59528;59.082;37.926;2022-12-07T16:04:47;6.60;;;2.60;;
71696;SDS011;59528;59.082;37.926;2022-12-07T16:07:13;5.67;;;2.70;;
71696;SDS011;59528;59.082;37.926;2022-12-07T16:09:41;5.47;;;2.73;;
71696;SDS011;59528;59.082;37.926;2022-12-07T16:12:07;5.67;;;2.50;;
71696;SDS011;59528;59.082;37.926;2022-12-07T16:14:33;4.47;;;2.53;;
71696;SDS011;59528;59.082;37.926;2022-12-07T16:16:59;6.47;;;3.10;;
71696;SDS011;59528;59.082;37.926;2022-12-07T16:19:24;5.33;;;2.90;;
71696;SDS011;59528;59.082;37.926;2022-12-07T16:21:50;8.17;;;2.97;;
71696;SDS011;59528;59.082;37.926;2022-12-07T16:24:17;7.70;;;2.63;;
71696;SDS011;59528;59.082;37.926;2022-12-07T16:26:44;7.03;;;2.67;;
71696;SDS011;59528;59.082;37.926;2022-12-07T16:29:11;6.07;;;3.00;;
71696;SDS011;59528;59.082;37.926;2022-12-07T16:31:38;6.17;;;2.70;;
71696;SDS011;59528;59.082;37.926;2022-12-07T16:34:03;5.13;;;2.70;;
71696;SDS011;59528;59.082;37.926;2022-12-07T16:36:31;4.83;;;2.60;;
71696;SDS011;59528;59.082;37.926;2022-12-07T16:38:58;7.60;;;2.90;;
71696;SDS011;59528;59.082;37.926;2022-12-07T16:41:23;4.27;;;2.30;;